sensor_id;sensor_type;location;lat;lon;timestamp;P1;durP1;ratioP1;P2;durP2;ratioP2
67941;SDS011;54731;42.600;23.476;2023-12-20T00:00:55;8.10;;;3.43;;
67941;SDS011;54731;42.600;23.476;2023-12-20T00:03:21;8.70;;;4.07;;
67941;SDS011;54731;42.600;23.476;2023-12-20T00:05:46;6.33;;;3.10;;
67941;SDS011;54731;42.600;23.476;2023-12-20T00:08:12;5.60;;;2.95;;
67941;SDS011;54731;42.600;23.476;2023-12-20T00:10:37;6.57;;;3.63;;
67941;SDS011;54731;42.600;23.476;2023-12-20T00:13:03;7.37;;;3.50;;
67941;SDS011;54731;42.600;23.476;2023-12-20T00:15:28;7.95;;;3.25;;
67941;SDS011;54731;42.600;23.476;2023-12-20T00:17:54;10.07;;;4.40;;
67941;SDS011;54731;42.600;23.476;2023-12-20T00:20:19;7.63;;;3.83;;
67941;SDS011;54731;42.600;23.476;2023-12-20T00:22:44;13.53;;;7.77;;
67941;SDS011;54731;42.600;23.476;2023-12-20T00:25:10;7.10;;;4.23;;
67941;SDS011;54731;42.600;23.476;2023-12-20T00:27:35;6.87;;;3.13;;
67941;SDS011;54731;42.600;23.476;2023-12-20T00:30:00;5.03;;;2.63;;
67941;SDS011;54731;42.600;23.476;2023-12-20T00:32:25;4.50;;;2.27;;
67941;SDS011;54731;42.600;23.476;2023-12-20T00:34:51;4.20;;;2.27;;
67941;SDS011;54731;42.600;23.476;2023-12-20T00:37:16;7.40;;;2.93;;
67941;SDS011;54731;42.600;23.476;2023-12-20T00:39:41;7.30;;;3.45;;
67941;SDS011;54731;42.600;23.476;2023-12-20T00:42:07;7.27;;;2.47;;
67941;SDS011;54731;42.600;23.476;2023-12-20T00:44:32;4.23;;;2.47;;
67941;SDS011;54731;42.600;23.476;2023-12-20T00:46:57;3.33;;;2.03;;
67941;SDS011;54731;42.600;23.476;2023-12-20T00:49:22;9.97;;;3.90;;
67941;SDS011;54731;42.600;23.476;2023-12-20T00:51:48;10.90;;;4.17;;
67941;SDS011;54731;42.600;23.476;2023-12-20T00:54:13;8.10;;;3.77;;
67941;SDS011;54731;42.600;23.476;2023-12-20T00:56:38;8.80;;;2.50;;
67941;SDS011;54731;42.600;23.476;2023-12-20T00:59:04;4.50;;;2.23;;
67941;SDS011;54731;42.600;23.476;2023-12-20T01:01:29;4.97;;;2.17;;
67941;SDS011;54731;42.600;23.476;2023-12-20T01:03:54;3.00;;;1.65;;
67941;SDS011;54731;42.600;23.476;2023-12-20T01:06:19;4.53;;;2.40;;
67941;SDS011;54731;42.600;23.476;2023-12-20T01:08:45;5.03;;;2.50;;
67941;SDS011;54731;42.600;23.476;2023-12-20T01:11:10;4.60;;;2.73;;
67941;SDS011;54731;42.600;23.476;2023-12-20T01:13:35;6.27;;;2.90;;
67941;SDS011;54731;42.600;23.476;2023-12-20T01:16:01;7.10;;;3.73;;
67941;SDS011;54731;42.600;23.476;2023-12-20T01:18:26;6.70;;;3.70;;
67941;SDS011;54731;42.600;23.476;2023-12-20T01:20:51;6.03;;;2.80;;
67941;SDS011;54731;42.600;23.476;2023-12-20T01:23:16;7.77;;;2.90;;
67941;SDS011;54731;42.600;23.476;2023-12-20T01:25:42;12.73;;;4.70;;
67941;SDS011;54731;42.600;23.476;2023-12-20T01:28:07;7.70;;;3.33;;
67941;SDS011;54731;42.600;23.476;2023-12-20T01:30:32;5.55;;;2.38;;
67941;SDS011;54731;42.600;23.476;2023-12-20T01:32:59;3.93;;;1.90;;
67941;SDS011;54731;42.600;23.476;2023-12-20T01:35:25;3.40;;;1.50;;
67941;SDS011;54731;42.600;23.476;2023-12-20T01:37:50;2.90;;;1.30;;
67941;SDS011;54731;42.600;23.476;2023-12-20T01:40:15;4.70;;;1.60;;
67941;SDS011;54731;42.600;23.476;2023-12-20T01:42:41;6.20;;;2.57;;
67941;SDS011;54731;42.600;23.476;2023-12-20T01:45:06;4.77;;;2.53;;
67941;SDS011;54731;42.600;23.476;2023-12-20T01:47:32;4.40;;;2.80;;
67941;SDS011;54731;42.600;23.476;2023-12-20T01:49:57;4.53;;;2.40;;
67941;SDS011;54731;42.600;23.476;2023-12-20T01:52:22;5.85;;;2.53;;
67941;SDS011;54731;42.600;23.476;2023-12-20T01:54:49;7.30;;;3.10;;
67941;SDS011;54731;42.600;23.476;2023-12-20T01:57:14;7.13;;;3.03;;
67941;SDS011;54731;42.600;23.476;2023-12-20T01:59:40;5.53;;;3.07;;
67941;SDS011;54731;42.600;23.476;2023-12-20T02:02:05;5.27;;;2.70;;
67941;SDS011;54731;42.600;23.476;2023-12-20T02:04:32;4.97;;;3.35;;
67941;SDS011;54731;42.600;23.476;2023-12-20T02:06:57;6.20;;;3.07;;
67941;SDS011;54731;42.600;23.476;2023-12-20T02:09:24;7.07;;;3.15;;
67941;SDS011;54731;42.600;23.476;2023-12-20T02:11:49;6.17;;;3.10;;
67941;SDS011;54731;42.600;23.476;2023-12-20T02:14:14;5.77;;;2.70;;
67941;SDS011;54731;42.600;23.476;2023-12-20T02:16:40;5.57;;;3.10;;
67941;SDS011;54731;42.600;23.476;2023-12-20T02:19:05;5.00;;;2.70;;
67941;SDS011;54731;42.600;23.476;2023-12-20T02:21:38;10.73;;;3.70;;
67941;SDS011;54731;42.600;23.476;2023-12-20T02:24:03;5.47;;;2.73;;
67941;SDS011;54731;42.600;23.476;2023-12-20T02:26:28;5.35;;;2.45;;
67941;SDS011;54731;42.600;23.476;2023-12-20T02:28:54;6.33;;;3.07;;
67941;SDS011;54731;42.600;23.476;2023-12-20T02:31:23;7.57;;;3.87;;
67941;SDS011;54731;42.600;23.476;2023-12-20T02:33:48;6.97;;;4.00;;
67941;SDS011;54731;42.600;23.476;2023-12-20T02:36:13;10.07;;;5.03;;
67941;SDS011;54731;42.600;23.476;2023-12-20T02:38:38;9.13;;;4.57;;
67941;SDS011;54731;42.600;23.476;2023-12-20T02:41:04;6.13;;;3.57;;
67941;SDS011;54731;42.600;23.476;2023-12-20T02:43:29;9.03;;;3.77;;
67941;SDS011;54731;42.600;23.476;2023-12-20T02:45:55;7.75;;;3.65;;
67941;SDS011;54731;42.600;23.476;2023-12-20T02:48:21;8.90;;;4.20;;
67941;SDS011;54731;42.600;23.476;2023-12-20T02:50:46;8.07;;;4.80;;
67941;SDS011;54731;42.600;23.476;2023-12-20T02:53:12;7.78;;;4.28;;
67941;SDS011;54731;42.600;23.476;2023-12-20T02:55:37;7.10;;;2.93;;
67941;SDS011;54731;42.600;23.476;2023-12-20T02:58:03;5.83;;;3.20;;
67941;SDS011;54731;42.600;23.476;2023-12-20T03:00:28;6.25;;;2.63;;
67941;SDS011;54731;42.600;23.476;2023-12-20T03:02:53;7.20;;;2.63;;
67941;SDS011;54731;42.600;23.476;2023-12-20T03:05:19;4.17;;;2.03;;
67941;SDS011;54731;42.600;23.476;2023-12-20T03:07:44;5.20;;;2.40;;
67941;SDS011;54731;42.600;23.476;2023-12-20T03:10:09;4.03;;;2.53;;
67941;SDS011;54731;42.600;23.476;2023-12-20T03:12:35;5.77;;;2.40;;
67941;SDS011;54731;42.600;23.476;2023-12-20T03:15:00;7.17;;;3.10;;
67941;SDS011;54731;42.600;23.476;2023-12-20T03:17:25;6.15;;;2.90;;
67941;SDS011;54731;42.600;23.476;2023-12-20T03:19:51;8.37;;;4.63;;
67941;SDS011;54731;42.600;23.476;2023-12-20T03:22:16;11.10;;;5.20;;
67941;SDS011;54731;42.600;23.476;2023-12-20T03:24:41;8.80;;;4.90;;
67941;SDS011;54731;42.600;23.476;2023-12-20T03:27:07;9.10;;;4.47;;
67941;SDS011;54731;42.600;23.476;2023-12-20T03:29:32;5.40;;;3.10;;
67941;SDS011;54731;42.600;23.476;2023-12-20T03:31:57;8.83;;;4.30;;
67941;SDS011;54731;42.600;23.476;2023-12-20T03:34:22;12.43;;;4.43;;
67941;SDS011;54731;42.600;23.476;2023-12-20T03:36:48;16.93;;;8.60;;
67941;SDS011;54731;42.600;23.476;2023-12-20T03:39:13;16.73;;;8.47;;
67941;SDS011;54731;42.600;23.476;2023-12-20T03:41:38;29.33;;;15.07;;
67941;SDS011;54731;42.600;23.476;2023-12-20T03:44:04;18.30;;;10.30;;
67941;SDS011;54731;42.600;23.476;2023-12-20T03:46:29;16.83;;;9.97;;
67941;SDS011;54731;42.600;23.476;2023-12-20T03:48:54;18.37;;;9.20;;
67941;SDS011;54731;42.600;23.476;2023-12-20T03:51:19;27.90;;;12.77;;
67941;SDS011;54731;42.600;23.476;2023-12-20T03:53:45;31.03;;;16.07;;
67941;SDS011;54731;42.600;23.476;2023-12-20T03:56:10;21.83;;;11.10;;
67941;SDS011;54731;42.600;23.476;2023-12-20T03:58:35;22.73;;;11.60;;
67941;SDS011;54731;42.600;23.476;2023-12-20T04:01:01;12.93;;;6.47;;
67941;SDS011;54731;42.600;23.476;2023-12-20T04:03:26;28.67;;;13.33;;
67941;SDS011;54731;42.600;23.476;2023-12-20T04:05:51;10.87;;;5.50;;
67941;SDS011;54731;42.600;23.476;2023-12-20T04:08:17;4.38;;;2.53;;
67941;SDS011;54731;42.600;23.476;2023-12-20T04:10:42;5.30;;;2.53;;
67941;SDS011;54731;42.600;23.476;2023-12-20T04:13:07;7.03;;;2.93;;
67941;SDS011;54731;42.600;23.476;2023-12-20T04:15:32;8.00;;;3.17;;
67941;SDS011;54731;42.600;23.476;2023-12-20T04:17:58;8.43;;;4.40;;
67941;SDS011;54731;42.600;23.476;2023-12-20T04:20:23;8.27;;;4.07;;
67941;SDS011;54731;42.600;23.476;2023-12-20T04:22:48;8.80;;;4.07;;
67941;SDS011;54731;42.600;23.476;2023-12-20T04:25:14;8.63;;;4.53;;
67941;SDS011;54731;42.600;23.476;2023-12-20T04:27:39;8.47;;;4.20;;
67941;SDS011;54731;42.600;23.476;2023-12-20T04:30:04;14.80;;;7.45;;
67941;SDS011;54731;42.600;23.476;2023-12-20T04:32:30;12.93;;;7.40;;
67941;SDS011;54731;42.600;23.476;2023-12-20T04:34:55;16.37;;;9.10;;
67941;SDS011;54731;42.600;23.476;2023-12-20T04:37:21;10.27;;;5.40;;
67941;SDS011;54731;42.600;23.476;2023-12-20T04:39:46;12.87;;;5.67;;
67941;SDS011;54731;42.600;23.476;2023-12-20T04:42:11;11.07;;;4.90;;
67941;SDS011;54731;42.600;23.476;2023-12-20T04:44:37;6.40;;;3.33;;
67941;SDS011;54731;42.600;23.476;2023-12-20T04:47:02;5.33;;;3.03;;
67941;SDS011;54731;42.600;23.476;2023-12-20T04:49:27;7.90;;;4.57;;
67941;SDS011;54731;42.600;23.476;2023-12-20T04:51:52;8.23;;;3.63;;
67941;SDS011;54731;42.600;23.476;2023-12-20T04:54:18;10.67;;;5.27;;
67941;SDS011;54731;42.600;23.476;2023-12-20T04:56:43;9.10;;;4.37;;
67941;SDS011;54731;42.600;23.476;2023-12-20T04:59:08;8.27;;;3.80;;
67941;SDS011;54731;42.600;23.476;2023-12-20T05:01:34;6.57;;;3.45;;
67941;SDS011;54731;42.600;23.476;2023-12-20T05:03:59;6.80;;;3.30;;
67941;SDS011;54731;42.600;23.476;2023-12-20T05:06:24;7.50;;;2.90;;
67941;SDS011;54731;42.600;23.476;2023-12-20T05:08:49;6.40;;;2.30;;
67941;SDS011;54731;42.600;23.476;2023-12-20T05:11:15;3.70;;;2.27;;
67941;SDS011;54731;42.600;23.476;2023-12-20T05:13:40;9.47;;;2.87;;
67941;SDS011;54731;42.600;23.476;2023-12-20T05:16:05;6.87;;;3.27;;
67941;SDS011;54731;42.600;23.476;2023-12-20T05:18:31;8.60;;;3.90;;
67941;SDS011;54731;42.600;23.476;2023-12-20T05:20:56;5.95;;;2.75;;
67941;SDS011;54731;42.600;23.476;2023-12-20T05:23:22;39.57;;;10.17;;
67941;SDS011;54731;42.600;23.476;2023-12-20T05:25:47;33.77;;;10.57;;
67941;SDS011;54731;42.600;23.476;2023-12-20T05:28:12;22.47;;;8.77;;
67941;SDS011;54731;42.600;23.476;2023-12-20T05:30:37;15.40;;;6.47;;
67941;SDS011;54731;42.600;23.476;2023-12-20T05:33:03;9.60;;;4.73;;
67941;SDS011;54731;42.600;23.476;2023-12-20T05:35:28;9.73;;;3.40;;
67941;SDS011;54731;42.600;23.476;2023-12-20T05:37:53;11.13;;;4.93;;
67941;SDS011;54731;42.600;23.476;2023-12-20T05:40:19;7.25;;;4.15;;
67941;SDS011;54731;42.600;23.476;2023-12-20T05:42:44;7.47;;;4.03;;
67941;SDS011;54731;42.600;23.476;2023-12-20T05:45:09;5.20;;;2.47;;
67941;SDS011;54731;42.600;23.476;2023-12-20T05:47:35;9.23;;;4.57;;
67941;SDS011;54731;42.600;23.476;2023-12-20T05:50:00;8.77;;;3.20;;
67941;SDS011;54731;42.600;23.476;2023-12-20T05:52:25;6.23;;;2.83;;
67941;SDS011;54731;42.600;23.476;2023-12-20T05:54:51;10.03;;;3.53;;
67941;SDS011;54731;42.600;23.476;2023-12-20T05:57:16;6.33;;;3.77;;
67941;SDS011;54731;42.600;23.476;2023-12-20T05:59:41;6.47;;;3.20;;
67941;SDS011;54731;42.600;23.476;2023-12-20T06:02:06;6.60;;;2.95;;
67941;SDS011;54731;42.600;23.476;2023-12-20T06:04:32;8.57;;;4.00;;
67941;SDS011;54731;42.600;23.476;2023-12-20T06:06:57;6.93;;;3.87;;
67941;SDS011;54731;42.600;23.476;2023-12-20T06:09:23;11.47;;;6.23;;
67941;SDS011;54731;42.600;23.476;2023-12-20T06:11:48;12.33;;;7.17;;
67941;SDS011;54731;42.600;23.476;2023-12-20T06:14:14;9.68;;;5.45;;
67941;SDS011;54731;42.600;23.476;2023-12-20T06:16:39;12.87;;;6.30;;
67941;SDS011;54731;42.600;23.476;2023-12-20T06:19:05;13.23;;;5.80;;
67941;SDS011;54731;42.600;23.476;2023-12-20T06:21:30;16.93;;;6.23;;
67941;SDS011;54731;42.600;23.476;2023-12-20T06:23:55;15.15;;;7.53;;
67941;SDS011;54731;42.600;23.476;2023-12-20T06:26:20;20.53;;;10.27;;
67941;SDS011;54731;42.600;23.476;2023-12-20T06:28:46;18.90;;;10.30;;
67941;SDS011;54731;42.600;23.476;2023-12-20T06:31:11;18.70;;;8.30;;
67941;SDS011;54731;42.600;23.476;2023-12-20T06:33:36;18.97;;;9.33;;
67941;SDS011;54731;42.600;23.476;2023-12-20T06:36:03;25.58;;;14.05;;
67941;SDS011;54731;42.600;23.476;2023-12-20T06:38:29;34.37;;;18.97;;
67941;SDS011;54731;42.600;23.476;2023-12-20T06:40:54;31.87;;;17.33;;
67941;SDS011;54731;42.600;23.476;2023-12-20T06:43:19;49.53;;;30.40;;
67941;SDS011;54731;42.600;23.476;2023-12-20T06:45:45;46.97;;;25.58;;
67941;SDS011;54731;42.600;23.476;2023-12-20T06:48:10;36.00;;;18.70;;
67941;SDS011;54731;42.600;23.476;2023-12-20T06:50:35;52.40;;;24.80;;
67941;SDS011;54731;42.600;23.476;2023-12-20T06:53:01;48.90;;;25.80;;
67941;SDS011;54731;42.600;23.476;2023-12-20T06:55:26;27.40;;;15.47;;
67941;SDS011;54731;42.600;23.476;2023-12-20T06:57:51;27.90;;;14.23;;
67941;SDS011;54731;42.600;23.476;2023-12-20T07:00:17;33.87;;;16.60;;
67941;SDS011;54731;42.600;23.476;2023-12-20T07:02:43;35.17;;;15.23;;
67941;SDS011;54731;42.600;23.476;2023-12-20T07:05:09;35.90;;;17.37;;
67941;SDS011;54731;42.600;23.476;2023-12-20T07:07:34;48.83;;;25.53;;
67941;SDS011;54731;42.600;23.476;2023-12-20T07:09:59;49.53;;;28.63;;
67941;SDS011;54731;42.600;23.476;2023-12-20T07:12:24;48.87;;;27.50;;
67941;SDS011;54731;42.600;23.476;2023-12-20T07:14:50;36.20;;;20.07;;
67941;SDS011;54731;42.600;23.476;2023-12-20T07:17:15;32.73;;;15.73;;
67941;SDS011;54731;42.600;23.476;2023-12-20T07:19:41;42.13;;;21.07;;
67941;SDS011;54731;42.600;23.476;2023-12-20T07:22:06;64.95;;;41.67;;
67941;SDS011;54731;42.600;23.476;2023-12-20T07:24:32;52.57;;;29.87;;
67941;SDS011;54731;42.600;23.476;2023-12-20T07:27:01;40.47;;;23.52;;
67941;SDS011;54731;42.600;23.476;2023-12-20T07:29:26;35.38;;;22.08;;
67941;SDS011;54731;42.600;23.476;2023-12-20T07:31:55;34.47;;;19.93;;
67941;SDS011;54731;42.600;23.476;2023-12-20T07:34:20;28.10;;;14.50;;
67941;SDS011;54731;42.600;23.476;2023-12-20T07:36:46;22.85;;;13.65;;
67941;SDS011;54731;42.600;23.476;2023-12-20T07:39:11;26.17;;;15.07;;
67941;SDS011;54731;42.600;23.476;2023-12-20T07:41:36;23.87;;;12.23;;
67941;SDS011;54731;42.600;23.476;2023-12-20T07:44:02;21.20;;;11.03;;
67941;SDS011;54731;42.600;23.476;2023-12-20T07:46:27;25.20;;;13.47;;
67941;SDS011;54731;42.600;23.476;2023-12-20T07:48:52;71.97;;;34.20;;
67941;SDS011;54731;42.600;23.476;2023-12-20T07:51:18;151.70;;;65.43;;
67941;SDS011;54731;42.600;23.476;2023-12-20T07:53:43;159.60;;;69.30;;
67941;SDS011;54731;42.600;23.476;2023-12-20T07:56:18;125.60;;;55.50;;
67941;SDS011;54731;42.600;23.476;2023-12-20T07:58:44;125.27;;;51.13;;
67941;SDS011;54731;42.600;23.476;2023-12-20T08:01:10;123.70;;;53.05;;
67941;SDS011;54731;42.600;23.476;2023-12-20T08:03:36;120.95;;;54.67;;
67941;SDS011;54731;42.600;23.476;2023-12-20T08:06:02;134.27;;;57.70;;
67941;SDS011;54731;42.600;23.476;2023-12-20T08:08:28;133.43;;;59.88;;
67941;SDS011;54731;42.600;23.476;2023-12-20T08:10:53;140.43;;;62.20;;
67941;SDS011;54731;42.600;23.476;2023-12-20T08:13:18;110.27;;;54.47;;
67941;SDS011;54731;42.600;23.476;2023-12-20T08:15:44;113.60;;;52.17;;
67941;SDS011;54731;42.600;23.476;2023-12-20T08:18:09;102.73;;;50.93;;
67941;SDS011;54731;42.600;23.476;2023-12-20T08:20:34;101.13;;;50.15;;
67941;SDS011;54731;42.600;23.476;2023-12-20T08:22:59;110.63;;;50.30;;
67941;SDS011;54731;42.600;23.476;2023-12-20T08:25:25;155.50;;;65.07;;
67941;SDS011;54731;42.600;23.476;2023-12-20T08:27:50;168.63;;;70.37;;
67941;SDS011;54731;42.600;23.476;2023-12-20T08:30:15;147.60;;;62.97;;
67941;SDS011;54731;42.600;23.476;2023-12-20T08:32:41;200.73;;;87.03;;
67941;SDS011;54731;42.600;23.476;2023-12-20T08:35:06;140.67;;;58.23;;
67941;SDS011;54731;42.600;23.476;2023-12-20T08:37:31;127.57;;;45.30;;
67941;SDS011;54731;42.600;23.476;2023-12-20T08:39:57;128.32;;;43.58;;
67941;SDS011;54731;42.600;23.476;2023-12-20T08:42:22;133.77;;;44.33;;
67941;SDS011;54731;42.600;23.476;2023-12-20T08:44:47;121.10;;;43.23;;
67941;SDS011;54731;42.600;23.476;2023-12-20T08:47:12;107.30;;;39.17;;
67941;SDS011;54731;42.600;23.476;2023-12-20T08:49:38;133.50;;;51.17;;
67941;SDS011;54731;42.600;23.476;2023-12-20T08:52:04;132.75;;;52.42;;
67941;SDS011;54731;42.600;23.476;2023-12-20T08:54:29;137.07;;;56.07;;
67941;SDS011;54731;42.600;23.476;2023-12-20T08:56:55;144.17;;;57.80;;
67941;SDS011;54731;42.600;23.476;2023-12-20T08:59:20;131.43;;;59.37;;
67941;SDS011;54731;42.600;23.476;2023-12-20T09:01:45;121.35;;;52.45;;
67941;SDS011;54731;42.600;23.476;2023-12-20T09:04:11;127.03;;;50.20;;
67941;SDS011;54731;42.600;23.476;2023-12-20T09:06:36;137.33;;;54.47;;
67941;SDS011;54731;42.600;23.476;2023-12-20T09:09:01;157.00;;;57.37;;
67941;SDS011;54731;42.600;23.476;2023-12-20T09:11:27;141.27;;;54.20;;
67941;SDS011;54731;42.600;23.476;2023-12-20T09:13:52;117.53;;;49.17;;
67941;SDS011;54731;42.600;23.476;2023-12-20T09:16:17;116.73;;;48.80;;
67941;SDS011;54731;42.600;23.476;2023-12-20T09:18:42;114.00;;;43.63;;
67941;SDS011;54731;42.600;23.476;2023-12-20T09:21:08;102.37;;;42.27;;
67941;SDS011;54731;42.600;23.476;2023-12-20T09:23:33;107.93;;;43.05;;
67941;SDS011;54731;42.600;23.476;2023-12-20T09:25:58;121.40;;;43.77;;
67941;SDS011;54731;42.600;23.476;2023-12-20T09:28:24;117.23;;;46.13;;
67941;SDS011;54731;42.600;23.476;2023-12-20T09:30:49;105.43;;;42.47;;
67941;SDS011;54731;42.600;23.476;2023-12-20T09:33:14;139.40;;;52.50;;
67941;SDS011;54731;42.600;23.476;2023-12-20T09:35:40;138.67;;;51.80;;
67941;SDS011;54731;42.600;23.476;2023-12-20T09:38:05;127.77;;;51.83;;
67941;SDS011;54731;42.600;23.476;2023-12-20T09:40:30;134.18;;;52.13;;
67941;SDS011;54731;42.600;23.476;2023-12-20T09:42:58;148.02;;;60.47;;
67941;SDS011;54731;42.600;23.476;2023-12-20T09:45:28;148.93;;;63.30;;
67941;SDS011;54731;42.600;23.476;2023-12-20T09:47:55;220.27;;;85.65;;
67941;SDS011;54731;42.600;23.476;2023-12-20T09:50:22;412.67;;;127.90;;
67941;SDS011;54731;42.600;23.476;2023-12-20T09:52:52;335.47;;;111.23;;
67941;SDS011;54731;42.600;23.476;2023-12-20T09:55:18;223.23;;;82.55;;
67941;SDS011;54731;42.600;23.476;2023-12-20T09:57:44;206.23;;;85.90;;
67941;SDS011;54731;42.600;23.476;2023-12-20T10:00:10;174.83;;;72.60;;
67941;SDS011;54731;42.600;23.476;2023-12-20T10:02:36;171.27;;;69.03;;
67941;SDS011;54731;42.600;23.476;2023-12-20T10:05:07;147.93;;;66.82;;
67941;SDS011;54731;42.600;23.476;2023-12-20T10:07:33;152.88;;;64.95;;
67941;SDS011;54731;42.600;23.476;2023-12-20T10:10:00;170.52;;;72.75;;
67941;SDS011;54731;42.600;23.476;2023-12-20T10:12:26;143.67;;;59.30;;
67941;SDS011;54731;42.600;23.476;2023-12-20T10:14:52;96.57;;;44.83;;
67941;SDS011;54731;42.600;23.476;2023-12-20T10:17:17;73.00;;;33.22;;
67941;SDS011;54731;42.600;23.476;2023-12-20T10:19:42;66.40;;;33.03;;
67941;SDS011;54731;42.600;23.476;2023-12-20T10:22:08;73.87;;;30.30;;
67941;SDS011;54731;42.600;23.476;2023-12-20T10:24:33;64.57;;;29.57;;
67941;SDS011;54731;42.600;23.476;2023-12-20T10:27:02;58.50;;;29.93;;
67941;SDS011;54731;42.600;23.476;2023-12-20T10:29:28;66.60;;;32.92;;
67941;SDS011;54731;42.600;23.476;2023-12-20T10:31:55;70.15;;;34.50;;
67941;SDS011;54731;42.600;23.476;2023-12-20T10:34:21;91.27;;;38.37;;
67941;SDS011;54731;42.600;23.476;2023-12-20T10:36:47;91.37;;;38.97;;
67941;SDS011;54731;42.600;23.476;2023-12-20T10:39:12;96.45;;;39.65;;
67941;SDS011;54731;42.600;23.476;2023-12-20T10:41:40;98.50;;;42.60;;
67941;SDS011;54731;42.600;23.476;2023-12-20T10:44:06;103.47;;;44.77;;
67941;SDS011;54731;42.600;23.476;2023-12-20T10:46:35;93.80;;;40.95;;
67941;SDS011;54731;42.600;23.476;2023-12-20T10:49:02;75.10;;;37.22;;
67941;SDS011;54731;42.600;23.476;2023-12-20T10:51:28;88.93;;;38.53;;
67941;SDS011;54731;42.600;23.476;2023-12-20T10:53:53;67.87;;;34.87;;
67941;SDS011;54731;42.600;23.476;2023-12-20T10:56:20;67.07;;;34.60;;
67941;SDS011;54731;42.600;23.476;2023-12-20T10:58:45;77.73;;;38.10;;
67941;SDS011;54731;42.600;23.476;2023-12-20T11:01:12;76.13;;;37.00;;
67941;SDS011;54731;42.600;23.476;2023-12-20T11:03:38;83.32;;;38.63;;
67941;SDS011;54731;42.600;23.476;2023-12-20T11:06:27;105.38;;;46.40;;
67941;SDS011;54731;42.600;23.476;2023-12-20T11:14:46;103.47;;;44.27;;
67941;SDS011;54731;42.600;23.476;2023-12-20T11:17:18;100.88;;;43.67;;
67941;SDS011;54731;42.600;23.476;2023-12-20T11:22:21;104.32;;;44.67;;
67941;SDS011;54731;42.600;23.476;2023-12-20T11:24:47;147.63;;;61.22;;
67941;SDS011;54731;42.600;23.476;2023-12-20T11:27:14;140.35;;;54.47;;
67941;SDS011;54731;42.600;23.476;2023-12-20T11:29:39;76.03;;;35.17;;
67941;SDS011;54731;42.600;23.476;2023-12-20T11:34:50;67.40;;;34.80;;
67941;SDS011;54731;42.600;23.476;2023-12-20T11:37:16;80.85;;;40.13;;
67941;SDS011;54731;42.600;23.476;2023-12-20T11:39:42;74.00;;;35.73;;
67941;SDS011;54731;42.600;23.476;2023-12-20T11:42:08;60.20;;;32.58;;
67941;SDS011;54731;42.600;23.476;2023-12-20T11:44:35;72.18;;;35.75;;
67941;SDS011;54731;42.600;23.476;2023-12-20T11:47:01;71.77;;;36.43;;
67941;SDS011;54731;42.600;23.476;2023-12-20T11:49:27;85.10;;;39.13;;
67941;SDS011;54731;42.600;23.476;2023-12-20T11:51:52;79.67;;;37.73;;
67941;SDS011;54731;42.600;23.476;2023-12-20T11:54:17;98.73;;;50.23;;
67941;SDS011;54731;42.600;23.476;2023-12-20T11:56:43;101.43;;;47.73;;
67941;SDS011;54731;42.600;23.476;2023-12-20T11:59:08;123.10;;;51.10;;
67941;SDS011;54731;42.600;23.476;2023-12-20T12:01:34;147.60;;;55.33;;
67941;SDS011;54731;42.600;23.476;2023-12-20T12:04:03;133.80;;;58.70;;
67941;SDS011;54731;42.600;23.476;2023-12-20T12:06:31;131.90;;;56.70;;
67941;SDS011;54731;42.600;23.476;2023-12-20T12:08:57;82.57;;;39.93;;
67941;SDS011;54731;42.600;23.476;2023-12-20T12:11:22;96.90;;;44.73;;
67941;SDS011;54731;42.600;23.476;2023-12-20T12:13:48;94.53;;;45.55;;
67941;SDS011;54731;42.600;23.476;2023-12-20T12:16:17;121.32;;;58.78;;
67941;SDS011;54731;42.600;23.476;2023-12-20T12:18:43;112.80;;;62.73;;
67941;SDS011;54731;42.600;23.476;2023-12-20T12:21:08;62.70;;;35.77;;
67941;SDS011;54731;42.600;23.476;2023-12-20T12:23:33;91.68;;;52.53;;
67941;SDS011;54731;42.600;23.476;2023-12-20T12:25:59;21.63;;;13.20;;
67941;SDS011;54731;42.600;23.476;2023-12-20T12:28:27;70.63;;;42.97;;
67941;SDS011;54731;42.600;23.476;2023-12-20T12:30:56;22.15;;;16.15;;
67941;SDS011;54731;42.600;23.476;2023-12-20T12:33:22;40.33;;;22.93;;
67941;SDS011;54731;42.600;23.476;2023-12-20T12:35:47;38.70;;;19.90;;
67941;SDS011;54731;42.600;23.476;2023-12-20T12:38:13;57.20;;;28.67;;
67941;SDS011;54731;42.600;23.476;2023-12-20T12:40:38;63.70;;;33.83;;
67941;SDS011;54731;42.600;23.476;2023-12-20T12:43:03;72.80;;;37.10;;
67941;SDS011;54731;42.600;23.476;2023-12-20T12:45:29;69.83;;;35.67;;
67941;SDS011;54731;42.600;23.476;2023-12-20T12:47:54;66.83;;;36.47;;
67941;SDS011;54731;42.600;23.476;2023-12-20T12:50:19;66.67;;;33.40;;
67941;SDS011;54731;42.600;23.476;2023-12-20T12:52:44;59.27;;;33.53;;
67941;SDS011;54731;42.600;23.476;2023-12-20T12:55:10;60.83;;;35.17;;
67941;SDS011;54731;42.600;23.476;2023-12-20T12:57:35;82.13;;;40.25;;
67941;SDS011;54731;42.600;23.476;2023-12-20T13:00:00;69.97;;;38.37;;
67941;SDS011;54731;42.600;23.476;2023-12-20T13:02:26;67.00;;;37.50;;
67941;SDS011;54731;42.600;23.476;2023-12-20T13:05:04;102.57;;;48.20;;
67941;SDS011;54731;42.600;23.476;2023-12-20T13:07:33;93.88;;;45.22;;
67941;SDS011;54731;42.600;23.476;2023-12-20T13:09:59;75.75;;;39.50;;
67941;SDS011;54731;42.600;23.476;2023-12-20T13:12:24;73.03;;;39.07;;
67941;SDS011;54731;42.600;23.476;2023-12-20T13:14:49;76.37;;;39.80;;
67941;SDS011;54731;42.600;23.476;2023-12-20T13:17:14;76.33;;;38.67;;
67941;SDS011;54731;42.600;23.476;2023-12-20T13:19:40;83.93;;;42.07;;
67941;SDS011;54731;42.600;23.476;2023-12-20T13:22:05;89.83;;;45.63;;
67941;SDS011;54731;42.600;23.476;2023-12-20T13:24:30;138.17;;;69.60;;
67941;SDS011;54731;42.600;23.476;2023-12-20T13:26:56;156.77;;;73.63;;
67941;SDS011;54731;42.600;23.476;2023-12-20T13:29:21;192.02;;;95.80;;
67941;SDS011;54731;42.600;23.476;2023-12-20T13:31:47;147.13;;;72.73;;
67941;SDS011;54731;42.600;23.476;2023-12-20T13:34:12;136.20;;;64.90;;
67941;SDS011;54731;42.600;23.476;2023-12-20T13:36:37;141.43;;;67.87;;
67941;SDS011;54731;42.600;23.476;2023-12-20T13:39:03;162.87;;;73.63;;
67941;SDS011;54731;42.600;23.476;2023-12-20T13:41:28;187.48;;;72.97;;
67941;SDS011;54731;42.600;23.476;2023-12-20T13:43:54;112.33;;;56.57;;
67941;SDS011;54731;42.600;23.476;2023-12-20T13:46:19;83.10;;;41.40;;
67941;SDS011;54731;42.600;23.476;2023-12-20T13:48:44;161.77;;;91.97;;
67941;SDS011;54731;42.600;23.476;2023-12-20T13:51:10;96.93;;;64.37;;
67941;SDS011;54731;42.600;23.476;2023-12-20T13:53:35;64.13;;;43.67;;
67941;SDS011;54731;42.600;23.476;2023-12-20T13:56:00;36.13;;;24.97;;
67941;SDS011;54731;42.600;23.476;2023-12-20T13:58:26;24.93;;;15.57;;
67941;SDS011;54731;42.600;23.476;2023-12-20T14:00:51;22.50;;;13.07;;
67941;SDS011;54731;42.600;23.476;2023-12-20T14:03:16;25.30;;;13.73;;
67941;SDS011;54731;42.600;23.476;2023-12-20T14:05:42;104.77;;;34.03;;
67941;SDS011;54731;42.600;23.476;2023-12-20T14:08:07;78.00;;;29.37;;
67941;SDS011;54731;42.600;23.476;2023-12-20T14:10:32;109.67;;;53.80;;
67941;SDS011;54731;42.600;23.476;2023-12-20T14:12:58;91.73;;;43.10;;
67941;SDS011;54731;42.600;23.476;2023-12-20T14:15:23;97.30;;;47.57;;
67941;SDS011;54731;42.600;23.476;2023-12-20T14:17:48;92.03;;;41.57;;